Time;durP1;ratioP1;P1;durP2;ratioP2;P2;SDS_P1;SDS_P2;PMS_P1;PMS_P2;Temp;Humidity;BMP_temperature;BMP_pressure;BME280_temperature;BME280_humidity;BME280_pressure;Samples;Min_cycle;Max_cycle;Signal;HPM_P1;HPM_P2
2022/03/29 00:00:20;;;;;;;19.92;9.35;;;;;;;;;;5050564;28;20499;-48
2022/03/29 00:02:46;;;;;;;21.17;10.18;;;;;;;;;;5036325;28;20029;-49
2022/03/29 00:05:12;;;;;;;17.27;9.27;;;;;;;;;;5040894;28;20025;-51
2022/03/29 00:07:38;;;;;;;16.60;9.00;;;;;;;;;;5043571;28;20370;-51
2022/03/29 00:10:06;;;;;;;19.77;9.38;;;;;;;;;;5048243;28;20033;-52
2022/03/29 00:12:33;;;;;;;19.83;9.52;;;;;;;;;;5050701;28;20030;-51
2022/03/29 00:14:59;;;;;;;20.55;9.40;;;;;;;;;;5047949;28;20025;-50
2022/03/29 00:17:25;;;;;;;16.67;9.00;;;;;;;;;;5051976;28;20378;-53
2022/03/29 00:19:51;;;;;;;19.33;8.73;;;;;;;;;;5041588;28;20108;-50
2022/03/29 00:22:17;;;;;;;22.42;9.80;;;;;;;;;;5036069;28;20026;-52
2022/03/29 00:24:43;;;;;;;18.05;10.07;;;;;;;;;;5035013;28;20021;-53
2022/03/29 00:27:09;;;;;;;22.60;10.20;;;;;;;;;;5047793;28;20115;-49
2022/03/29 00:29:35;;;;;;;20.13;10.20;;;;;;;;;;5033184;28;20105;-48
2022/03/29 00:32:01;;;;;;;16.08;9.20;;;;;;;;;;5046389;28;20021;-52
2022/03/29 00:34:27;;;;;;;19.55;9.85;;;;;;;;;;5045718;28;20501;-52
2022/03/29 00:36:53;;;;;;;19.95;9.40;;;;;;;;;;5037776;28;20044;-47
2022/03/29 00:39:19;;;;;;;18.10;10.05;;;;;;;;;;5040984;28;20099;-50
2022/03/29 00:41:45;;;;;;;19.60;9.90;;;;;;;;;;5044687;28;20080;-50
2022/03/29 00:44:12;;;;;;;21.55;10.75;;;;;;;;;;5054785;28;20021;-47
2022/03/29 00:46:39;;;;;;;20.10;11.18;;;;;;;;;;5045726;28;20029;-48
2022/03/29 00:49:05;;;;;;;17.00;9.35;;;;;;;;;;5044786;28;20627;-51
2022/03/29 00:51:31;;;;;;;17.70;9.27;;;;;;;;;;5048707;28;20033;-50
2022/03/29 00:53:57;;;;;;;18.60;9.45;;;;;;;;;;5045151;28;20520;-50
2022/03/29 00:56:23;;;;;;;19.17;10.02;;;;;;;;;;5050346;28;20044;-48
2022/03/29 00:58:49;;;;;;;21.48;9.88;;;;;;;;;;5044083;28;20083;-48
2022/03/29 01:01:16;;;;;;;22.77;11.10;;;;;;;;;;5055335;28;20536;-52
2022/03/29 01:03:42;;;;;;;23.02;10.63;;;;;;;;;;5042510;28;20033;-52
2022/03/29 01:06:08;;;;;;;21.67;10.93;;;;;;;;;;5047629;28;20078;-49
2022/03/29 01:08:35;;;;;;;19.27;10.10;;;;;;;;;;5042979;28;20041;-52
2022/03/29 01:11:02;;;;;;;21.42;10.85;;;;;;;;;;5044075;28;20381;-51
2022/03/29 01:13:28;;;;;;;18.30;9.30;;;;;;;;;;5053062;28;20037;-52
2022/03/29 01:15:55;;;;;;;21.65;10.45;;;;;;;;;;5054141;28;20028;-53
2022/03/29 01:18:23;;;;;;;23.10;11.02;;;;;;;;;;5051226;28;20025;-48
2022/03/29 01:20:50;;;;;;;23.95;11.95;;;;;;;;;;5054353;28;20025;-48
2022/03/29 01:23:16;;;;;;;19.73;10.38;;;;;;;;;;5044337;28;20030;-52
2022/03/29 01:25:43;;;;;;;19.98;10.25;;;;;;;;;;5037536;28;20025;-47
2022/03/29 01:28:10;;;;;;;24.15;10.68;;;;;;;;;;5054753;28;20029;-50
2022/03/29 01:30:36;;;;;;;21.00;10.43;;;;;;;;;;5041132;28;20468;-48
2022/03/29 01:33:02;;;;;;;25.73;11.13;;;;;;;;;;5035836;28;20033;-47
2022/03/29 01:35:30;;;;;;;20.77;10.80;;;;;;;;;;5048586;28;20036;-49
2022/03/29 01:37:56;;;;;;;21.48;11.40;;;;;;;;;;5044584;28;20064;-50
2022/03/29 01:40:24;;;;;;;23.90;11.15;;;;;;;;;;5039000;28;20100;-51
2022/03/29 01:42:51;;;;;;;22.02;11.60;;;;;;;;;;5043364;28;20043;-52
2022/03/29 01:45:17;;;;;;;21.92;11.60;;;;;;;;;;5048662;28;20033;-52
2022/03/29 01:47:43;;;;;;;21.45;12.23;;;;;;;;;;5043401;28;20108;-51
2022/03/29 01:50:10;;;;;;;25.35;12.77;;;;;;;;;;5047342;28;20104;-52
2022/03/29 01:52:43;;;;;;;24.42;11.00;;;;;;;;;;5041789;28;20021;-52
2022/03/29 01:55:10;;;;;;;22.17;11.63;;;;;;;;;;5037895;28;20046;-51
2022/03/29 01:57:37;;;;;;;24.38;11.45;;;;;;;;;;5050147;28;20044;-53
2022/03/29 02:02:49;;;;;;;28.20;13.32;;;;;;;;;;5048158;28;20039;-50
2022/03/29 02:05:15;;;;;;;25.25;13.00;;;;;;;;;;5047493;28;20021;-53
2022/03/29 02:07:41;;;;;;;20.52;11.68;;;;;;;;;;5050182;28;20030;-52
2022/03/29 02:10:07;;;;;;;24.58;12.65;;;;;;;;;;5050164;28;20071;-47
2022/03/29 02:12:33;;;;;;;23.98;12.30;;;;;;;;;;5051771;28;20437;-47
2022/03/29 02:14:59;;;;;;;24.67;12.07;;;;;;;;;;5051236;28;20021;-48
2022/03/29 02:17:25;;;;;;;27.83;13.48;;;;;;;;;;5048453;28;20067;-48
2022/03/29 02:19:51;;;;;;;25.85;12.60;;;;;;;;;;5041957;28;20044;-48
2022/03/29 02:22:17;;;;;;;24.98;12.43;;;;;;;;;;5041591;28;20029;-48
2022/03/29 02:24:43;;;;;;;24.92;12.48;;;;;;;;;;5044788;28;20092;-47
2022/03/29 02:27:10;;;;;;;24.05;12.10;;;;;;;;;;5043884;28;20045;-48
2022/03/29 02:29:36;;;;;;;27.90;12.63;;;;;;;;;;5042905;28;20030;-53
2022/03/29 02:32:02;;;;;;;26.50;12.80;;;;;;;;;;5045652;28;20048;-53
2022/03/29 02:34:28;;;;;;;27.25;13.23;;;;;;;;;;5049032;28;20064;-53
2022/03/29 02:36:55;;;;;;;23.77;12.05;;;;;;;;;;5039537;28;20452;-53
2022/03/29 02:39:21;;;;;;;24.65;12.40;;;;;;;;;;5044548;28;20024;-51
2022/03/29 02:41:47;;;;;;;26.70;12.52;;;;;;;;;;5042570;28;20439;-50
2022/03/29 02:44:13;;;;;;;23.70;12.13;;;;;;;;;;5047346;28;20055;-53
2022/03/29 02:46:39;;;;;;;23.27;12.45;;;;;;;;;;5051432;28;20029;-52
2022/03/29 02:49:04;;;;;;;22.67;12.63;;;;;;;;;;5043800;28;20508;-51
2022/03/29 02:51:30;;;;;;;25.52;12.55;;;;;;;;;;5045982;28;20029;-48
2022/03/29 02:53:56;;;;;;;23.27;11.65;;;;;;;;;;5050474;28;20571;-48
2022/03/29 02:56:22;;;;;;;28.52;13.00;;;;;;;;;;5053535;28;20367;-48
2022/03/29 02:58:48;;;;;;;22.80;11.65;;;;;;;;;;5046839;28;20025;-49
2022/03/29 03:01:14;;;;;;;22.52;11.40;;;;;;;;;;5049086;28;20469;-48
2022/03/29 03:03:40;;;;;;;22.10;12.23;;;;;;;;;;5048903;28;20079;-53
2022/03/29 03:06:06;;;;;;;24.90;12.07;;;;;;;;;;5043210;28;20032;-52
2022/03/29 03:08:32;;;;;;;26.30;12.30;;;;;;;;;;5051503;28;20029;-51
2022/03/29 03:10:58;;;;;;;33.90;14.23;;;;;;;;;;5052072;28;20407;-53
2022/03/29 03:13:24;;;;;;;27.20;12.60;;;;;;;;;;5052417;28;20524;-53
2022/03/29 03:15:50;;;;;;;24.05;12.60;;;;;;;;;;5051494;28;20029;-49
2022/03/29 03:18:16;;;;;;;23.17;11.13;;;;;;;;;;5042218;28;20033;-52
2022/03/29 03:20:42;;;;;;;24.88;12.75;;;;;;;;;;5049724;28;20079;-48
2022/03/29 03:23:08;;;;;;;22.17;11.65;;;;;;;;;;5048627;28;20033;-49
2022/03/29 03:25:34;;;;;;;25.27;13.90;;;;;;;;;;5046868;28;20389;-48
2022/03/29 03:28:00;;;;;;;22.85;12.75;;;;;;;;;;5045764;28;20033;-52
2022/03/29 03:30:26;;;;;;;26.25;13.98;;;;;;;;;;5045217;28;20104;-50
2022/03/29 03:32:54;;;;;;;23.83;13.77;;;;;;;;;;5048766;28;20033;-47
2022/03/29 03:35:20;;;;;;;25.38;13.10;;;;;;;;;;5051174;28;20062;-50
2022/03/29 03:37:47;;;;;;;29.58;13.07;;;;;;;;;;5047381;28;20071;-49
2022/03/29 03:40:13;;;;;;;23.55;11.77;;;;;;;;;;5041205;28;20053;-52
2022/03/29 03:42:39;;;;;;;22.58;12.35;;;;;;;;;;5035570;28;20469;-50
2022/03/29 03:45:06;;;;;;;24.20;11.57;;;;;;;;;;5051620;28;20029;-51
2022/03/29 03:47:32;;;;;;;26.38;12.38;;;;;;;;;;5051216;28;20033;-52
2022/03/29 03:49:58;;;;;;;25.85;12.80;;;;;;;;;;5041643;28;20033;-48
2022/03/29 03:52:24;;;;;;;29.08;14.15;;;;;;;;;;5042644;28;20030;-53
2022/03/29 03:54:50;;;;;;;23.20;11.98;;;;;;;;;;5047815;28;20044;-53
2022/03/29 03:57:18;;;;;;;26.05;12.63;;;;;;;;;;5052511;28;20033;-53
2022/03/29 03:59:45;;;;;;;21.75;10.73;;;;;;;;;;5046739;28;20155;-52
2022/03/29 04:02:11;;;;;;;27.05;12.95;;;;;;;;;;5047815;28;20373;-50
2022/03/29 04:04:37;;;;;;;22.27;13.00;;;;;;;;;;5047384;28;20027;-48
2022/03/29 04:07:03;;;;;;;22.65;11.50;;;;;;;;;;5043940;28;20037;-48
2022/03/29 04:09:29;;;;;;;27.77;13.35;;;;;;;;;;5037773;28;20078;-53
2022/03/29 04:11:55;;;;;;;24.50;12.52;;;;;;;;;;5048404;28;20033;-47
2022/03/29 04:14:21;;;;;;;25.75;12.32;;;;;;;;;;5042172;28;20102;-52
2022/03/29 04:16:47;;;;;;;28.38;12.95;;;;;;;;;;5050024;28;20091;-53
2022/03/29 04:19:13;;;;;;;29.42;13.13;;;;;;;;;;5046057;28;20378;-50
2022/03/29 04:21:39;;;;;;;24.35;12.18;;;;;;;;;;5042537;28;20032;-48
2022/03/29 04:24:05;;;;;;;26.83;13.20;;;;;;;;;;5043603;28;20040;-50
2022/03/29 04:26:31;;;;;;;26.40;13.20;;;;;;;;;;5049843;28;20472;-53
2022/03/29 04:28:57;;;;;;;31.80;15.05;;;;;;;;;;5048818;28;20033;-50
2022/03/29 04:31:23;;;;;;;29.92;13.35;;;;;;;;;;5037838;28;20033;-51
2022/03/29 04:33:49;;;;;;;24.90;13.35;;;;;;;;;;5041114;28;20457;-49
2022/03/29 04:36:15;;;;;;;26.55;12.77;;;;;;;;;;5041644;28;20386;-50
2022/03/29 04:38:41;;;;;;;28.20;14.02;;;;;;;;;;5037507;28;20037;-49
2022/03/29 04:41:07;;;;;;;26.80;12.95;;;;;;;;;;5047659;28;20137;-51
2022/03/29 04:43:33;;;;;;;25.67;12.60;;;;;;;;;;5038232;28;20376;-48
2022/03/29 04:46:01;;;;;;;22.23;11.90;;;;;;;;;;5042646;28;20112;-48
2022/03/29 04:48:27;;;;;;;26.42;12.68;;;;;;;;;;5040579;28;20037;-53
2022/03/29 04:50:53;;;;;;;24.23;12.38;;;;;;;;;;5046147;28;20492;-51
2022/03/29 04:53:19;;;;;;;27.88;13.30;;;;;;;;;;5038661;28;21620;-53
2022/03/29 04:55:45;;;;;;;23.67;12.07;;;;;;;;;;5042663;28;20385;-53
2022/03/29 04:58:11;;;;;;;25.73;11.45;;;;;;;;;;5039324;28;20090;-49
2022/03/29 05:00:37;;;;;;;28.13;12.93;;;;;;;;;;5038015;28;20554;-48
2022/03/29 05:03:03;;;;;;;27.63;12.82;;;;;;;;;;5042075;28;20033;-49
2022/03/29 05:05:29;;;;;;;25.60;12.82;;;;;;;;;;5038494;28;20025;-48
2022/03/29 05:07:55;;;;;;;28.05;13.20;;;;;;;;;;5040519;28;20018;-49
2022/03/29 05:10:21;;;;;;;27.92;13.75;;;;;;;;;;5041124;28;20032;-49
2022/03/29 05:12:48;;;;;;;30.13;13.50;;;;;;;;;;5046600;28;20048;-48
2022/03/29 05:15:16;;;;;;;31.58;13.82;;;;;;;;;;5044887;28;20036;-48
2022/03/29 05:17:42;;;;;;;30.98;14.10;;;;;;;;;;5045684;28;20037;-50
2022/03/29 05:20:09;;;;;;;29.45;13.13;;;;;;;;;;5043003;28;20522;-47
2022/03/29 05:22:42;;;;;;;29.27;13.23;;;;;;;;;;5041135;28;20124;-50
2022/03/29 05:25:08;;;;;;;29.92;14.45;;;;;;;;;;5046047;28;20033;-53
2022/03/29 05:27:34;;;;;;;32.85;15.02;;;;;;;;;;5037729;28;20033;-54
2022/03/29 05:30:00;;;;;;;28.17;13.75;;;;;;;;;;5048742;28;20021;-50
2022/03/29 05:32:26;;;;;;;32.53;14.48;;;;;;;;;;5047382;28;20100;-49
2022/03/29 05:34:52;;;;;;;31.85;14.02;;;;;;;;;;5040432;28;20101;-50
2022/03/29 05:37:18;;;;;;;25.63;12.80;;;;;;;;;;5036813;28;20354;-49
2022/03/29 05:39:44;;;;;;;29.95;14.95;;;;;;;;;;5035214;28;20029;-50
2022/03/29 05:42:13;;;;;;;34.50;14.50;;;;;;;;;;5040506;28;20028;-52
2022/03/29 05:44:39;;;;;;;31.05;13.55;;;;;;;;;;5045015;28;20021;-49
2022/03/29 05:49:51;;;;;;;29.02;13.30;;;;;;;;;;5053678;28;20075;-50
2022/03/29 05:52:17;;;;;;;31.45;13.98;;;;;;;;;;5040091;28;20041;-50
2022/03/29 05:54:45;;;;;;;31.77;14.95;;;;;;;;;;5047020;28;20516;-53
2022/03/29 05:57:11;;;;;;;27.40;13.13;;;;;;;;;;5046698;28;20080;-48
2022/03/29 05:59:37;;;;;;;33.80;13.43;;;;;;;;;;5037899;28;20040;-50
2022/03/29 06:02:04;;;;;;;37.30;15.57;;;;;;;;;;5042244;28;20028;-50
2022/03/29 06:04:33;;;;;;;30.80;13.88;;;;;;;;;;5039457;28;20109;-54
2022/03/29 06:06:59;;;;;;;33.15;14.43;;;;;;;;;;5044029;28;20077;-50
2022/03/29 06:09:25;;;;;;;31.08;14.85;;;;;;;;;;5043720;28;20033;-51
2022/03/29 06:11:51;;;;;;;29.63;13.20;;;;;;;;;;5044918;28;20409;-49
2022/03/29 06:14:17;;;;;;;31.15;13.23;;;;;;;;;;5053745;28;20032;-53
2022/03/29 06:16:43;;;;;;;35.97;15.23;;;;;;;;;;5042493;28;20497;-48
2022/03/29 06:19:10;;;;;;;30.45;13.52;;;;;;;;;;5041693;28;20103;-52
2022/03/29 06:21:37;;;;;;;30.45;14.18;;;;;;;;;;5048214;28;20057;-51
2022/03/29 06:24:06;;;;;;;28.73;13.18;;;;;;;;;;5043396;28;20021;-49
2022/03/29 06:26:33;;;;;;;34.58;14.23;;;;;;;;;;5041774;28;20025;-50
2022/03/29 06:28:59;;;;;;;27.73;13.38;;;;;;;;;;5047945;28;20079;-50
2022/03/29 06:31:25;;;;;;;30.58;11.82;;;;;;;;;;5046984;28;20036;-53
2022/03/29 06:33:51;;;;;;;34.38;13.07;;;;;;;;;;5036129;28;20048;-50
2022/03/29 06:36:17;;;;;;;28.45;13.27;;;;;;;;;;5032833;28;20451;-54
2022/03/29 06:38:44;;;;;;;29.85;13.90;;;;;;;;;;5042100;28;20378;-49
2022/03/29 06:41:10;;;;;;;32.42;12.68;;;;;;;;;;5036207;28;20029;-52
2022/03/29 06:43:36;;;;;;;27.77;13.65;;;;;;;;;;5034909;28;20095;-53
2022/03/29 06:46:03;;;;;;;32.15;13.38;;;;;;;;;;5044286;28;20041;-50
2022/03/29 06:48:29;;;;;;;30.15;13.55;;;;;;;;;;5039685;28;20053;-54
2022/03/29 06:50:55;;;;;;;27.73;12.73;;;;;;;;;;5040216;28;20041;-53
2022/03/29 06:53:21;;;;;;;29.83;12.48;;;;;;;;;;5035350;28;20041;-50
2022/03/29 06:55:50;;;;;;;29.20;13.10;;;;;;;;;;5043560;28;20128;-50
2022/03/29 06:58:16;;;;;;;25.15;12.07;;;;;;;;;;5043668;28;20034;-52
2022/03/29 07:00:42;;;;;;;27.85;13.65;;;;;;;;;;5040156;28;20080;-49
2022/03/29 07:03:09;;;;;;;27.23;12.70;;;;;;;;;;5035559;28;20061;-50
2022/03/29 07:05:38;;;;;;;28.33;12.63;;;;;;;;;;5043955;28;20037;-51
2022/03/29 07:08:04;;;;;;;30.13;13.77;;;;;;;;;;5038351;28;20566;-50
2022/03/29 07:13:15;;;;;;;25.02;11.65;;;;;;;;;;5041777;28;20444;-53
2022/03/29 07:15:41;;;;;;;27.10;11.93;;;;;;;;;;5045039;28;20397;-50
2022/03/29 07:18:07;;;;;;;20.00;10.77;;;;;;;;;;5051389;28;20064;-51
2022/03/29 07:20:33;;;;;;;25.45;10.73;;;;;;;;;;5047241;28;20072;-50
2022/03/29 07:22:59;;;;;;;26.90;10.70;;;;;;;;;;5037024;28;20531;-53
2022/03/29 07:25:31;;;;;;;23.80;11.18;;;;;;;;;;5032749;28;20026;-53
2022/03/29 07:27:57;;;;;;;30.35;11.55;;;;;;;;;;5033897;28;20465;-53
2022/03/29 07:30:24;;;;;;;23.75;10.85;;;;;;;;;;5033659;28;20025;-54
2022/03/29 07:32:51;;;;;;;19.48;10.32;;;;;;;;;;5040801;28;20033;-52
2022/03/29 07:35:18;;;;;;;23.42;10.23;;;;;;;;;;5042494;28;20037;-53
2022/03/29 07:37:44;;;;;;;18.85;8.75;;;;;;;;;;5048351;28;20052;-50
2022/03/29 07:40:11;;;;;;;22.27;10.82;;;;;;;;;;5045975;28;20067;-54
2022/03/29 07:42:38;;;;;;;21.20;9.07;;;;;;;;;;5034006;28;20025;-54
2022/03/29 07:45:05;;;;;;;23.40;10.82;;;;;;;;;;5034268;28;20040;-49
2022/03/29 07:47:31;;;;;;;24.67;9.35;;;;;;;;;;5041614;28;20029;-49
2022/03/29 07:49:57;;;;;;;21.45;9.00;;;;;;;;;;5037906;28;20094;-49
2022/03/29 07:52:23;;;;;;;28.90;10.18;;;;;;;;;;5040454;28;20029;-49
2022/03/29 07:54:50;;;;;;;18.00;7.95;;;;;;;;;;5042945;28;20382;-51
2022/03/29 07:57:16;;;;;;;19.30;9.30;;;;;;;;;;5033208;28;20520;-51
2022/03/29 07:59:42;;;;;;;20.92;8.73;;;;;;;;;;5036607;28;20044;-54
2022/03/29 08:02:09;;;;;;;17.20;9.40;;;;;;;;;;5044626;28;20037;-52
2022/03/29 08:04:35;;;;;;;20.73;9.93;;;;;;;;;;5042905;28;20524;-53
2022/03/29 08:07:01;;;;;;;23.10;9.27;;;;;;;;;;5033538;28;20025;-54
2022/03/29 08:09:27;;;;;;;21.33;8.90;;;;;;;;;;5046645;28;20116;-50
2022/03/29 08:11:55;;;;;;;21.90;10.52;;;;;;;;;;5046106;28;20049;-54
2022/03/29 08:14:21;;;;;;;24.77;11.48;;;;;;;;;;5037301;28;20398;-51
2022/03/29 08:16:47;;;;;;;26.05;12.13;;;;;;;;;;5046554;28;20104;-50
2022/03/29 08:19:13;;;;;;;25.88;11.77;;;;;;;;;;5045561;28;20044;-49
2022/03/29 08:21:49;;;;;;;24.85;11.35;;;;;;;;;;5035928;28;20033;-49
2022/03/29 08:24:15;;;;;;;24.08;10.95;;;;;;;;;;5040868;28;20128;-49
2022/03/29 08:26:41;;;;;;;19.38;10.00;;;;;;;;;;5045000;28;20021;-51
2022/03/29 08:29:08;;;;;;;20.27;9.15;;;;;;;;;;5044664;28;20037;-49
2022/03/29 08:31:34;;;;;;;21.05;9.82;;;;;;;;;;5050547;28;20453;-52
2022/03/29 08:34:01;;;;;;;18.65;8.70;;;;;;;;;;5041917;28;20339;-50
2022/03/29 08:36:27;;;;;;;23.45;10.13;;;;;;;;;;5037381;28;20108;-54
2022/03/29 08:38:53;;;;;;;20.83;8.48;;;;;;;;;;5033580;28;20430;-53
2022/03/29 08:41:19;;;;;;;17.67;9.05;;;;;;;;;;5049081;28;20033;-50
2022/03/29 08:43:45;;;;;;;18.77;10.00;;;;;;;;;;5041406;28;20025;-51
2022/03/29 08:46:11;;;;;;;20.13;9.27;;;;;;;;;;5031724;28;20362;-53
2022/03/29 08:48:37;;;;;;;19.38;9.20;;;;;;;;;;5044990;28;20025;-53
2022/03/29 08:51:04;;;;;;;19.38;9.02;;;;;;;;;;5035275;28;20040;-50
2022/03/29 08:53:30;;;;;;;20.15;9.02;;;;;;;;;;5037505;28;20037;-50
2022/03/29 08:55:57;;;;;;;17.42;9.07;;;;;;;;;;5038608;28;20053;-53
2022/03/29 08:58:24;;;;;;;16.10;8.93;;;;;;;;;;5051482;28;20036;-49
2022/03/29 09:00:50;;;;;;;19.55;9.57;;;;;;;;;;5051577;28;20079;-49
2022/03/29 09:03:17;;;;;;;19.73;10.32;;;;;;;;;;5055455;28;20025;-49
2022/03/29 09:05:43;;;;;;;20.95;9.70;;;;;;;;;;5040946;28;20457;-49
2022/03/29 09:08:09;;;;;;;23.02;10.70;;;;;;;;;;5042282;28;20132;-50
2022/03/29 09:10:44;;;;;;;21.85;9.63;;;;;;;;;;5044157;28;20022;-51
2022/03/29 09:13:23;;;;;;;16.90;8.65;;;;;;;;;;5047932;28;20033;-52
2022/03/29 09:15:50;;;;;;;19.05;9.57;;;;;;;;;;5054762;28;20032;-53
2022/03/29 09:18:16;;;;;;;16.38;8.85;;;;;;;;;;5050783;28;20033;-51
2022/03/29 09:20:42;;;;;;;19.52;9.38;;;;;;;;;;5039564;28;20017;-50
2022/03/29 09:23:13;;;;;;;15.95;8.43;;;;;;;;;;5041112;28;20045;-50
2022/03/29 09:25:46;;;;;;;20.73;9.75;;;;;;;;;;5041832;28;20420;-50
2022/03/29 09:28:14;;;;;;;16.60;8.95;;;;;;;;;;5044186;28;20033;-51
2022/03/29 09:30:42;;;;;;;19.23;8.65;;;;;;;;;;5050712;28;20657;-52
2022/03/29 09:33:09;;;;;;;18.92;8.90;;;;;;;;;;5039414;28;20439;-53
2022/03/29 09:35:37;;;;;;;17.20;9.30;;;;;;;;;;5044397;28;20017;-51
2022/03/29 09:38:19;;;;;;;18.73;8.68;;;;;;;;;;5036351;28;20030;-49
2022/03/29 09:40:45;;;;;;;16.67;8.63;;;;;;;;;;5037581;28;20087;-49
2022/03/29 09:43:11;;;;;;;15.85;7.97;;;;;;;;;;5035718;28;20029;-50
2022/03/29 09:45:38;;;;;;;13.90;7.30;;;;;;;;;;5034712;28;20109;-49
2022/03/29 09:48:22;;;;;;;17.42;8.55;;;;;;;;;;5051441;28;20024;-55
2022/03/29 09:50:49;;;;;;;15.07;8.13;;;;;;;;;;5042243;28;20021;-49
2022/03/29 09:53:33;;;;;;;18.60;8.40;;;;;;;;;;5035816;28;20040;-49
2022/03/29 09:55:59;;;;;;;15.02;7.85;;;;;;;;;;5051246;28;20037;-49
2022/03/29 09:58:25;;;;;;;15.40;7.82;;;;;;;;;;5054404;28;20029;-50
2022/03/29 10:00:51;;;;;;;15.40;8.10;;;;;;;;;;5042630;28;20075;-49
2022/03/29 10:03:17;;;;;;;15.85;8.20;;;;;;;;;;5053033;28;20033;-48
2022/03/29 10:05:46;;;;;;;13.40;7.22;;;;;;;;;;5038916;28;20119;-52
2022/03/29 10:11:02;;;;;;;15.93;7.43;;;;;;;;;;5036703;28;20040;-51
2022/03/29 10:13:29;;;;;;;16.98;7.05;;;;;;;;;;5048501;28;20021;-50
2022/03/29 10:15:55;;;;;;;14.38;7.63;;;;;;;;;;5046178;28;20038;-53
2022/03/29 10:18:22;;;;;;;12.73;7.10;;;;;;;;;;5046965;28;20378;-50
2022/03/29 10:20:48;;;;;;;12.00;7.38;;;;;;;;;;5045985;28;20037;-54
2022/03/29 10:23:14;;;;;;;13.20;7.35;;;;;;;;;;5040751;28;20163;-54
2022/03/29 10:25:41;;;;;;;12.50;6.45;;;;;;;;;;5049396;28;20103;-49
2022/03/29 10:28:07;;;;;;;11.85;6.22;;;;;;;;;;5039810;28;20100;-49
2022/03/29 10:30:34;;;;;;;10.57;5.50;;;;;;;;;;5052272;28;20476;-48
2022/03/29 10:33:19;;;;;;;13.32;6.13;;;;;;;;;;5049588;28;20465;-49
2022/03/29 10:36:01;;;;;;;13.38;7.18;;;;;;;;;;5033314;28;20025;-49
2022/03/29 10:38:51;;;;;;;15.68;7.85;;;;;;;;;;5044836;28;20076;-52
2022/03/29 10:41:26;;;;;;;11.30;6.28;;;;;;;;;;5034634;28;20045;-47
2022/03/29 10:43:53;;;;;;;10.73;5.32;;;;;;;;;;5043942;28;20036;-48
2022/03/29 10:46:24;;;;;;;9.75;5.28;;;;;;;;;;5044488;28;20415;-48
2022/03/29 10:49:09;;;;;;;9.25;5.28;;;;;;;;;;5053890;28;20495;-51
2022/03/29 10:51:35;;;;;;;11.45;6.20;;;;;;;;;;5039990;28;20487;-48
2022/03/29 10:54:20;;;;;;;10.02;5.50;;;;;;;;;;5053538;28;20110;-51
2022/03/29 10:56:59;;;;;;;9.23;5.55;;;;;;;;;;5043827;28;20029;-48
2022/03/29 10:59:25;;;;;;;13.55;5.88;;;;;;;;;;5050807;28;20115;-50
2022/03/29 11:02:06;;;;;;;9.45;4.75;;;;;;;;;;5044057;28;20473;-53
2022/03/29 11:04:33;;;;;;;11.10;4.28;;;;;;;;;;5044070;28;20523;-53
2022/03/29 11:07:12;;;;;;;9.10;4.90;;;;;;;;;;5042218;28;20027;-51
2022/03/29 11:09:40;;;;;;;9.13;4.55;;;;;;;;;;5046267;28;20032;-51
2022/03/29 11:12:06;;;;;;;9.45;4.68;;;;;;;;;;5040903;28;20025;-48
2022/03/29 11:14:33;;;;;;;9.93;5.13;;;;;;;;;;5053275;28;20179;-47
2022/03/29 11:17:11;;;;;;;11.80;5.50;;;;;;;;;;5046814;28;20056;-50
2022/03/29 11:19:44;;;;;;;8.07;3.97;;;;;;;;;;5035123;28;20034;-48
2022/03/29 11:22:22;;;;;;;10.05;5.20;;;;;;;;;;5041868;28;20025;-50
2022/03/29 11:24:53;;;;;;;8.18;5.07;;;;;;;;;;5033806;28;20025;-51
2022/03/29 11:27:22;;;;;;;8.35;4.47;;;;;;;;;;5039303;28;20107;-47
2022/03/29 11:29:49;;;;;;;9.18;4.40;;;;;;;;;;5033250;28;20099;-47
2022/03/29 11:32:17;;;;;;;6.75;3.45;;;;;;;;;;5046751;28;20036;-48
2022/03/29 11:34:43;;;;;;;7.00;3.72;;;;;;;;;;5044764;28;20124;-49
2022/03/29 11:37:25;;;;;;;6.50;3.72;;;;;;;;;;5049429;28;20043;-50
2022/03/29 11:39:51;;;;;;;7.78;3.60;;;;;;;;;;5048575;28;20415;-52
2022/03/29 11:42:18;;;;;;;6.55;3.60;;;;;;;;;;5042049;28;20105;-51
2022/03/29 11:44:46;;;;;;;6.32;3.58;;;;;;;;;;5036415;28;20036;-47
2022/03/29 11:47:12;;;;;;;11.35;4.68;;;;;;;;;;5044726;28;20036;-47
2022/03/29 11:49:39;;;;;;;6.53;3.35;;;;;;;;;;5043364;28;20029;-53
2022/03/29 11:52:08;;;;;;;9.85;4.30;;;;;;;;;;5039075;28;20034;-52
2022/03/29 11:54:42;;;;;;;6.65;3.42;;;;;;;;;;5045423;28;20055;-49
2022/03/29 11:57:15;;;;;;;6.82;3.42;;;;;;;;;;5043972;28;20030;-53
2022/03/29 11:59:42;;;;;;;9.38;4.47;;;;;;;;;;5041388;28;20036;-48
2022/03/29 12:02:09;;;;;;;9.13;4.72;;;;;;;;;;5039717;28;20050;-54
2022/03/29 12:04:37;;;;;;;7.32;3.72;;;;;;;;;;5048952;28;20506;-53
2022/03/29 12:07:03;;;;;;;9.95;4.20;;;;;;;;;;5040857;28;20030;-51
2022/03/29 12:09:31;;;;;;;8.48;3.97;;;;;;;;;;5040401;28;20029;-53
2022/03/29 12:11:59;;;;;;;9.23;3.22;;;;;;;;;;5042577;28;20377;-47
2022/03/29 12:14:25;;;;;;;6.65;3.25;;;;;;;;;;5042718;28;20060;-48
2022/03/29 12:16:51;;;;;;;11.82;3.75;;;;;;;;;;5050341;28;20025;-48
2022/03/29 12:19:19;;;;;;;9.93;4.38;;;;;;;;;;5033598;28;20111;-54
2022/03/29 12:21:48;;;;;;;7.45;3.83;;;;;;;;;;5031211;28;20022;-54
2022/03/29 12:24:14;;;;;;;11.15;4.80;;;;;;;;;;5045756;28;20025;-52
2022/03/29 12:26:44;;;;;;;9.48;4.50;;;;;;;;;;5051189;28;20047;-53
2022/03/29 12:29:12;;;;;;;11.07;3.83;;;;;;;;;;5032743;28;20116;-52
2022/03/29 12:31:38;;;;;;;8.20;3.28;;;;;;;;;;5047898;28;20065;-49
2022/03/29 12:34:05;;;;;;;8.80;4.03;;;;;;;;;;5050437;28;20028;-48
2022/03/29 12:36:31;;;;;;;10.50;4.45;;;;;;;;;;5047810;28;20025;-47
2022/03/29 12:39:04;;;;;;;9.77;4.65;;;;;;;;;;5033522;28;20037;-49
2022/03/29 12:41:37;;;;;;;6.15;3.78;;;;;;;;;;5032569;28;20516;-47
2022/03/29 12:44:03;;;;;;;8.50;4.13;;;;;;;;;;5033104;28;20025;-47
2022/03/29 12:46:30;;;;;;;7.03;4.47;;;;;;;;;;5031280;28;20116;-53
2022/03/29 12:48:57;;;;;;;8.43;4.05;;;;;;;;;;5039190;28;20026;-54
2022/03/29 12:51:27;;;;;;;5.47;3.42;;;;;;;;;;5045066;28;20029;-53
2022/03/29 12:53:54;;;;;;;7.25;3.97;;;;;;;;;;5031848;28;20037;-52
2022/03/29 12:56:27;;;;;;;7.50;3.30;;;;;;;;;;5050660;28;20033;-52
2022/03/29 12:58:53;;;;;;;8.07;3.95;;;;;;;;;;5037921;28;20033;-49
2022/03/29 13:01:25;;;;;;;8.07;3.70;;;;;;;;;;5043205;28;20032;-53
2022/03/29 13:03:51;;;;;;;4.32;3.03;;;;;;;;;;5036509;28;20018;-52
2022/03/29 13:06:17;;;;;;;10.02;4.07;;;;;;;;;;5039827;28;20036;-52
2022/03/29 13:08:43;;;;;;;7.47;3.40;;;;;;;;;;5044582;28;20504;-52
2022/03/29 13:11:16;;;;;;;9.02;3.20;;;;;;;;;;5044046;28;20829;-51
2022/03/29 13:13:42;;;;;;;7.57;3.85;;;;;;;;;;5047149;28;20029;-51
2022/03/29 13:16:18;;;;;;;8.00;3.85;;;;;;;;;;5050264;28;20512;-48
2022/03/29 13:18:49;;;;;;;9.23;4.05;;;;;;;;;;5046936;28;20112;-50
2022/03/29 13:21:16;;;;;;;7.47;3.35;;;;;;;;;;5044260;28;20017;-48
2022/03/29 13:23:43;;;;;;;7.57;3.50;;;;;;;;;;5032490;28;20544;-48
2022/03/29 13:26:11;;;;;;;9.00;3.58;;;;;;;;;;5046698;28;20045;-48
2022/03/29 13:28:38;;;;;;;9.82;4.22;;;;;;;;;;5041063;28;20025;-48
2022/03/29 13:31:06;;;;;;;8.85;3.40;;;;;;;;;;5050948;28;20146;-50
2022/03/29 13:33:32;;;;;;;5.43;3.13;;;;;;;;;;5044146;28;20032;-47
2022/03/29 13:35:58;;;;;;;10.98;3.08;;;;;;;;;;5031663;28;20039;-47
2022/03/29 13:38:26;;;;;;;9.93;3.90;;;;;;;;;;5037939;28;20029;-52
2022/03/29 13:40:53;;;;;;;8.73;3.53;;;;;;;;;;5034972;28;20029;-52
2022/03/29 13:43:19;;;;;;;9.23;3.53;;;;;;;;;;5050768;28;20472;-53
2022/03/29 13:45:45;;;;;;;8.55;2.97;;;;;;;;;;5037900;28;20021;-54
2022/03/29 13:48:12;;;;;;;7.25;2.60;;;;;;;;;;5042872;28;20021;-53
2022/03/29 13:50:39;;;;;;;9.23;3.00;;;;;;;;;;5042796;28;20033;-53
2022/03/29 13:53:05;;;;;;;4.15;2.28;;;;;;;;;;5040791;28;20606;-53
2022/03/29 13:55:34;;;;;;;5.25;2.42;;;;;;;;;;5042845;28;20041;-51
2022/03/29 13:58:05;;;;;;;5.07;2.00;;;;;;;;;;5045395;28;20053;-51
2022/03/29 14:00:32;;;;;;;6.25;2.47;;;;;;;;;;5053573;28;20021;-47
2022/03/29 14:02:58;;;;;;;8.98;2.78;;;;;;;;;;5051827;28;20105;-47
2022/03/29 14:05:26;;;;;;;4.93;2.22;;;;;;;;;;5048339;28;20343;-47
2022/03/29 14:07:52;;;;;;;6.72;2.47;;;;;;;;;;5043534;28;20476;-48
2022/03/29 14:10:18;;;;;;;5.20;2.28;;;;;;;;;;5034532;28;20041;-48
2022/03/29 14:12:44;;;;;;;3.72;1.75;;;;;;;;;;5051035;28;20024;-47
2022/03/29 14:15:10;;;;;;;3.83;1.77;;;;;;;;;;5040530;28;20055;-51
2022/03/29 14:17:36;;;;;;;4.93;1.88;;;;;;;;;;5034378;28;20037;-50
2022/03/29 14:20:03;;;;;;;3.65;1.65;;;;;;;;;;5053228;28;20029;-49
2022/03/29 14:22:32;;;;;;;5.95;1.92;;;;;;;;;;5035485;28;20022;-53
2022/03/29 14:24:58;;;;;;;6.72;2.08;;;;;;;;;;5035357;28;20040;-52
2022/03/29 14:27:24;;;;;;;5.85;2.03;;;;;;;;;;5040196;28;20025;-53
2022/03/29 14:29:50;;;;;;;7.13;2.13;;;;;;;;;;5040309;28;20373;-53
2022/03/29 14:32:16;;;;;;;6.40;2.30;;;;;;;;;;5051955;28;20044;-52
2022/03/29 14:34:43;;;;;;;6.07;2.13;;;;;;;;;;5041883;28;20042;-53
2022/03/29 14:37:09;;;;;;;4.78;1.90;;;;;;;;;;5047522;28;20043;-49